createdAt,value
2019-02-15T00:01:06.901Z,9.27
2019-02-15T00:03:36.373Z,9.90
2019-02-15T00:06:06.206Z,9.10
2019-02-15T00:08:36.166Z,9.70
2019-02-15T00:11:05.714Z,9.90
2019-02-15T00:13:35.401Z,9.63
2019-02-15T00:16:04.623Z,9.03
2019-02-15T00:18:55.655Z,9.73
2019-02-15T00:21:27.642Z,8.90
2019-02-15T00:23:56.911Z,9.07
2019-02-15T00:26:26.130Z,9.20
2019-02-15T00:28:55.428Z,9.77
2019-02-15T00:31:24.670Z,9.53
2019-02-15T00:33:53.996Z,9.03
2019-02-15T00:36:23.278Z,8.90
2019-02-15T00:38:52.534Z,8.90
2019-02-15T00:41:21.820Z,8.67
2019-02-15T00:43:51.085Z,8.53
2019-02-15T00:46:51.666Z,8.80
2019-02-15T00:49:52.280Z,8.83
2019-02-15T00:52:43.441Z,9.40
2019-02-15T00:55:27.001Z,8.63
2019-02-15T00:58:18.154Z,8.97
2019-02-15T01:01:09.351Z,8.53
2019-02-15T01:04:16.459Z,8.60
2019-02-15T01:07:39.317Z,10.17
2019-02-15T01:10:33.397Z,10.57
2019-02-15T01:13:12.881Z,11.87
2019-02-15T01:15:42.180Z,13.43
2019-02-15T01:18:11.476Z,12.80
2019-02-15T01:20:40.726Z,10.97
2019-02-15T01:23:10.984Z,11.17
2019-02-15T01:25:49.649Z,11.37
2019-02-15T01:28:36.117Z,10.90
2019-02-15T01:31:25.971Z,11.90
2019-02-15T01:34:26.212Z,11.07
2019-02-15T01:37:06.467Z,15.23
2019-02-15T01:39:44.528Z,14.37
2019-02-15T01:42:32.100Z,13.10
2019-02-15T01:45:14.741Z,11.87
2019-02-15T01:47:46.797Z,12.10
2019-02-15T01:50:16.033Z,12.93
2019-02-15T01:52:45.283Z,19.00
2019-02-15T01:55:14.528Z,15.47
2019-02-15T01:57:43.817Z,17.37
2019-02-15T02:00:15.718Z,13.40
2019-02-15T02:02:44.955Z,14.70
2019-02-15T02:05:14.253Z,13.10
2019-02-15T02:07:43.504Z,14.77
2019-02-15T02:10:12.730Z,19.47
2019-02-15T02:12:42.062Z,32.00
2019-02-15T02:15:12.033Z,30.93
2019-02-15T02:17:41.270Z,21.20
2019-02-15T02:20:11.039Z,14.43
2019-02-15T02:22:40.318Z,15.63
2019-02-15T02:25:09.728Z,17.40
2019-02-15T02:27:39.410Z,16.73
2019-02-15T02:30:09.861Z,16.10
2019-02-15T02:32:39.186Z,12.57
2019-02-15T02:35:08.804Z,13.57
2019-02-15T02:37:38.079Z,12.93
2019-02-15T02:40:12.085Z,11.67
2019-02-15T02:42:41.371Z,11.37
2019-02-15T02:45:10.615Z,12.40
2019-02-15T02:47:39.852Z,12.53
2019-02-15T02:50:09.064Z,12.70
2019-02-15T02:52:38.852Z,13.13
2019-02-15T02:55:32.123Z,11.27
2019-02-15T02:58:01.340Z,11.30
2019-02-15T03:00:33.627Z,11.73
2019-02-15T03:03:01.845Z,11.43
2019-02-15T03:05:31.049Z,11.60
2019-02-15T03:08:00.355Z,12.27
2019-02-15T03:10:29.631Z,11.70
2019-02-15T03:12:58.846Z,12.07
2019-02-15T03:15:28.070Z,11.33
2019-02-15T03:17:57.295Z,12.60
2019-02-15T03:20:31.190Z,12.83
2019-02-15T03:22:57.573Z,12.77
2019-02-15T03:25:26.790Z,13.33
2019-02-15T03:27:56.030Z,12.90
2019-02-15T03:30:25.263Z,13.10
2019-02-15T03:32:54.538Z,12.30
2019-02-15T03:35:23.747Z,11.53
2019-02-15T03:38:07.445Z,11.97
2019-02-15T03:40:42.889Z,11.57
2019-02-15T03:43:12.196Z,11.57
2019-02-15T03:45:41.425Z,13.40
2019-02-15T03:48:10.708Z,12.03
2019-02-15T03:50:39.922Z,13.17
2019-02-15T03:53:09.622Z,12.90
2019-02-15T03:55:38.952Z,11.87
2019-02-15T03:58:08.190Z,11.47
2019-02-15T04:00:37.641Z,11.23
2019-02-15T04:03:06.870Z,11.37
2019-02-15T04:05:36.082Z,12.03
2019-02-15T04:08:05.429Z,12.43
2019-02-15T04:10:34.671Z,12.37
2019-02-15T04:13:03.901Z,11.60
2019-02-15T04:15:33.181Z,11.83
2019-02-15T04:18:02.425Z,12.07
2019-02-15T04:23:59.872Z,11.57
2019-02-15T04:26:29.194Z,11.60
2019-02-15T04:28:58.427Z,11.80
2019-02-15T04:31:27.685Z,11.87
2019-02-15T04:33:57.205Z,12.40
2019-02-15T04:36:26.548Z,12.17
2019-02-15T04:38:55.788Z,12.43
2019-02-15T04:41:25.020Z,12.70
2019-02-15T04:43:54.436Z,11.77
2019-02-15T04:46:23.666Z,12.30
2019-02-15T04:48:52.882Z,12.37
2019-02-15T04:51:22.168Z,12.27
2019-02-15T04:53:51.429Z,12.63
2019-02-15T04:56:20.718Z,12.73
2019-02-15T04:58:51.727Z,12.13
2019-02-15T05:01:20.962Z,13.57
2019-02-15T05:03:50.183Z,12.77
2019-02-15T05:06:37.774Z,12.43
2019-02-15T05:09:07.020Z,12.83
2019-02-15T05:11:36.283Z,13.17
2019-02-15T05:14:06.227Z,12.53
2019-02-15T05:16:35.561Z,12.83
2019-02-15T05:19:04.784Z,11.97
2019-02-15T05:21:34.050Z,12.57
2019-02-15T05:24:03.682Z,12.77
2019-02-15T05:26:32.954Z,12.53
2019-02-15T05:29:02.166Z,11.37
2019-02-15T05:31:31.452Z,11.50
2019-02-15T05:34:00.730Z,10.97
2019-02-15T05:36:29.987Z,10.70
2019-02-15T05:38:59.217Z,11.00
2019-02-15T05:41:28.514Z,11.93
2019-02-15T05:43:58.148Z,11.93
2019-02-15T05:46:27.357Z,11.03
2019-02-15T05:48:56.575Z,10.63
2019-02-15T05:51:25.815Z,11.07
2019-02-15T05:53:55.097Z,10.17
2019-02-15T05:56:24.393Z,10.20
2019-02-15T05:58:53.678Z,9.43
2019-02-15T06:01:24.816Z,10.17
2019-02-15T06:03:54.117Z,9.17
2019-02-15T06:06:23.401Z,10.23
2019-02-15T06:08:52.701Z,10.73
2019-02-15T06:11:21.942Z,10.63
2019-02-15T06:13:51.225Z,10.30
2019-02-15T06:16:20.513Z,10.27
2019-02-15T06:18:49.743Z,9.80
2019-02-15T06:21:19.060Z,10.40
2019-02-15T06:23:48.299Z,11.03
2019-02-15T06:26:18.009Z,10.63
2019-02-15T06:28:47.252Z,10.67
2019-02-15T06:31:16.525Z,10.73
2019-02-15T06:33:45.802Z,12.20
2019-02-15T06:36:15.083Z,11.70
2019-02-15T06:38:44.304Z,13.57
2019-02-15T06:41:13.597Z,13.43
2019-02-15T06:43:43.722Z,13.30
2019-02-15T06:46:16.145Z,13.43
2019-02-15T06:48:45.436Z,12.97
2019-02-15T06:51:14.727Z,13.33
2019-02-15T06:53:44.079Z,11.97
2019-02-15T06:56:13.400Z,10.83
2019-02-15T06:59:00.563Z,9.53
2019-02-15T07:01:48.794Z,9.57
2019-02-15T07:04:43.246Z,10.03
2019-02-15T07:07:15.323Z,9.17
2019-02-15T07:09:44.617Z,9.10
2019-02-15T07:12:17.076Z,9.87
2019-02-15T07:14:46.484Z,10.20
2019-02-15T07:17:15.804Z,9.90
2019-02-15T07:19:45.100Z,10.00
2019-02-15T07:22:14.377Z,10.47
2019-02-15T07:24:47.202Z,10.73
2019-02-15T07:27:16.582Z,11.53
2019-02-15T07:29:45.855Z,10.33
2019-02-15T07:32:20.829Z,10.90
2019-02-15T07:34:50.161Z,11.43
2019-02-15T07:37:19.455Z,10.50
2019-02-15T07:39:54.578Z,10.70
2019-02-15T07:42:24.326Z,9.93
2019-02-15T07:44:53.671Z,10.00
2019-02-15T07:47:23.020Z,9.97
2019-02-15T07:49:52.317Z,10.13
2019-02-15T07:52:21.603Z,11.30
2019-02-15T07:54:50.908Z,9.97
2019-02-15T07:57:21.235Z,10.50
2019-02-15T07:59:50.666Z,11.63
2019-02-15T08:02:19.955Z,10.30
2019-02-15T08:04:49.227Z,10.33
2019-02-15T08:07:18.582Z,10.53
2019-02-15T08:09:47.928Z,10.83
2019-02-15T08:12:17.908Z,10.97
2019-02-15T08:14:47.211Z,10.67
2019-02-15T08:17:16.585Z,10.87
2019-02-15T08:19:47.065Z,10.53
2019-02-15T08:22:16.425Z,9.87
2019-02-15T08:24:45.715Z,9.63
2019-02-15T08:27:14.973Z,9.77
2019-02-15T08:29:47.108Z,10.13
2019-02-15T08:32:19.352Z,9.80
2019-02-15T08:34:49.049Z,8.63
2019-02-15T08:37:18.597Z,9.47
2019-02-15T08:39:48.069Z,9.53
2019-02-15T08:42:17.333Z,9.93
2019-02-15T08:44:46.934Z,10.40
2019-02-15T08:47:18.656Z,9.73
2019-02-15T08:49:47.998Z,10.13
2019-02-15T08:52:21.335Z,10.00
2019-02-15T08:54:50.917Z,10.57
2019-02-15T08:57:20.633Z,9.50
2019-02-15T08:59:50.123Z,9.87
2019-02-15T09:02:23.939Z,9.77
2019-02-15T09:04:53.272Z,9.47
2019-02-15T09:07:24.705Z,10.47
2019-02-15T09:09:54.536Z,10.00
2019-02-15T09:12:24.028Z,8.73
2019-02-15T09:14:53.387Z,8.47
2019-02-15T09:17:22.697Z,8.70
2019-02-15T09:19:59.880Z,9.07
2019-02-15T09:22:29.331Z,9.93
2019-02-15T09:24:58.608Z,9.13
2019-02-15T09:28:05.216Z,8.97
2019-02-15T09:30:34.505Z,9.10
2019-02-15T09:33:06.368Z,9.30
2019-02-15T09:35:38.343Z,8.40
2019-02-15T09:38:07.706Z,8.60
2019-02-15T09:40:37.037Z,8.30
2019-02-15T09:43:06.598Z,9.07
2019-02-15T09:45:39.761Z,8.47
2019-02-15T09:48:09.858Z,8.20
2019-02-15T09:50:41.721Z,7.83
2019-02-15T09:53:11.541Z,8.93
2019-02-15T09:55:40.977Z,8.00
2019-02-15T09:58:10.291Z,8.60
2019-02-15T10:00:42.584Z,8.40
2019-02-15T10:03:12.067Z,9.13
2019-02-15T10:05:41.316Z,8.30
2019-02-15T10:08:10.563Z,8.07
2019-02-15T10:10:43.425Z,7.23
2019-02-15T10:13:13.461Z,8.23
2019-02-15T10:15:45.847Z,8.50
2019-02-15T10:18:15.760Z,8.10
2019-02-15T10:20:48.310Z,8.37
2019-02-15T10:23:28.017Z,7.73
2019-02-15T10:25:57.411Z,9.07
2019-02-15T10:28:26.857Z,7.93
2019-02-15T10:30:56.158Z,9.53
2019-02-15T10:33:25.959Z,8.13
2019-02-15T10:35:55.327Z,7.73
2019-02-15T10:38:24.631Z,7.87
2019-02-15T10:40:54.220Z,8.77
2019-02-15T10:43:23.531Z,8.27
2019-02-15T10:45:52.940Z,7.10
2019-02-15T10:48:27.335Z,7.77
2019-02-15T10:50:56.686Z,7.40
2019-02-15T10:53:26.358Z,9.77
2019-02-15T10:55:55.685Z,8.70
2019-02-15T10:58:26.390Z,8.50
2019-02-15T11:00:56.034Z,7.90
2019-02-15T11:03:25.319Z,8.77
2019-02-15T11:05:54.634Z,8.27
2019-02-15T11:08:24.558Z,8.40
2019-02-15T11:10:53.860Z,9.27
2019-02-15T11:13:23.132Z,6.77
2019-02-15T11:15:56.395Z,6.70
2019-02-15T11:18:25.715Z,7.60
2019-02-15T11:20:56.807Z,8.03
2019-02-15T11:23:26.164Z,9.20
2019-02-15T11:25:55.422Z,7.37
2019-02-15T11:28:27.037Z,7.43
2019-02-15T11:30:56.349Z,7.03
2019-02-15T11:33:25.828Z,7.50
2019-02-15T11:35:55.574Z,7.33
2019-02-15T11:38:24.897Z,7.70
2019-02-15T11:40:54.721Z,7.07
2019-02-15T11:43:24.052Z,6.73
2019-02-15T11:45:59.487Z,7.07
2019-02-15T11:48:29.519Z,5.70
2019-02-15T11:50:58.877Z,6.70
2019-02-15T11:53:28.215Z,8.13
2019-02-15T11:55:57.428Z,7.37
2019-02-15T11:58:26.646Z,6.80
2019-02-15T12:00:55.901Z,8.40
2019-02-15T12:03:25.171Z,8.00
2019-02-15T12:05:54.427Z,7.47
2019-02-15T12:08:23.696Z,9.60
2019-02-15T12:10:52.952Z,9.77
2019-02-15T12:13:22.402Z,8.47
2019-02-15T12:15:51.679Z,7.40
2019-02-15T12:18:20.959Z,7.00
2019-02-15T12:20:50.248Z,7.40
2019-02-15T12:23:19.511Z,6.17
2019-02-15T12:25:48.772Z,5.83
2019-02-15T12:28:18.757Z,6.40
2019-02-15T12:30:48.033Z,6.13
2019-02-15T12:33:17.276Z,5.70
2019-02-15T12:35:46.655Z,5.30
2019-02-15T12:38:15.878Z,5.93
2019-02-15T12:40:45.115Z,5.73
2019-02-15T12:43:14.307Z,7.73
2019-02-15T12:45:43.583Z,7.83
2019-02-15T12:48:12.803Z,7.00
2019-02-15T12:50:42.077Z,5.63
2019-02-15T12:53:11.267Z,6.20
2019-02-15T12:55:40.861Z,5.40
2019-02-15T12:58:10.288Z,6.10
2019-02-15T13:04:09.019Z,5.63
2019-02-15T13:06:38.399Z,6.80
2019-02-15T13:09:07.780Z,6.03
2019-02-15T13:11:38.349Z,4.83
2019-02-15T13:14:07.655Z,5.23
2019-02-15T13:16:36.901Z,6.00
2019-02-15T13:19:06.177Z,5.80
2019-02-15T13:21:35.531Z,6.17
2019-02-15T13:24:04.779Z,6.10
2019-02-15T13:26:34.037Z,5.37
2019-02-15T13:29:03.284Z,6.17
2019-02-15T13:31:32.608Z,6.40
2019-02-15T13:34:01.845Z,5.83
2019-02-15T13:36:31.121Z,4.97
2019-02-15T13:39:00.359Z,5.50
2019-02-15T13:41:29.658Z,3.90
2019-02-15T13:44:01.983Z,3.57
2019-02-15T13:46:33.238Z,3.50
2019-02-15T13:49:02.177Z,3.70
2019-02-15T13:51:31.490Z,8.13
2019-02-15T13:54:00.742Z,5.47
2019-02-15T13:56:30.024Z,7.60
2019-02-15T13:58:59.300Z,5.17
2019-02-15T14:01:28.563Z,3.40
2019-02-15T14:03:57.814Z,3.47
2019-02-15T14:06:27.053Z,4.73
2019-02-15T14:08:56.319Z,5.00
2019-02-15T14:11:25.559Z,12.50
2019-02-15T14:13:54.897Z,13.47
2019-02-15T14:16:24.264Z,6.80
2019-02-15T14:18:53.923Z,5.80
2019-02-15T14:21:23.193Z,4.87
2019-02-15T14:23:52.450Z,7.07
2019-02-15T14:26:22.117Z,5.53
2019-02-15T14:28:51.467Z,3.70
2019-02-15T14:31:23.473Z,5.43
2019-02-15T14:33:52.702Z,4.20
2019-02-15T14:36:22.044Z,2.53
2019-02-15T14:38:51.262Z,2.63
2019-02-15T14:41:20.485Z,2.60
2019-02-15T14:43:49.737Z,2.63
2019-02-15T14:46:18.978Z,3.17
2019-02-15T14:48:48.234Z,2.30
2019-02-15T14:51:17.556Z,2.33
2019-02-15T14:53:49.772Z,4.60
2019-02-15T14:56:19.047Z,5.10
2019-02-15T14:58:48.321Z,2.93
2019-02-15T15:01:17.565Z,3.30
2019-02-15T15:03:47.140Z,2.93
2019-02-15T15:06:16.589Z,4.43
2019-02-15T15:08:45.928Z,7.10
2019-02-15T15:11:15.286Z,8.00
2019-02-15T15:13:44.514Z,4.60
2019-02-15T15:16:23.499Z,5.70
2019-02-15T15:18:52.819Z,4.37
2019-02-15T15:21:22.054Z,4.10
2019-02-15T15:23:51.355Z,2.60
2019-02-15T15:27:08.749Z,3.70
2019-02-15T15:29:38.025Z,5.27
2019-02-15T15:32:07.351Z,5.27
2019-02-15T15:34:40.509Z,3.20
2019-02-15T15:37:16.534Z,5.00
2019-02-15T15:39:44.160Z,3.00
2019-02-15T15:42:13.442Z,5.00
2019-02-15T15:44:42.720Z,4.10
2019-02-15T15:47:12.058Z,3.73
2019-02-15T15:49:41.425Z,2.87
2019-02-15T15:52:10.758Z,3.93
2019-02-15T15:54:40.075Z,6.83
2019-02-15T15:57:09.388Z,5.20
2019-02-15T15:59:38.635Z,8.87
2019-02-15T16:02:07.976Z,4.40
2019-02-15T16:04:37.217Z,4.17
2019-02-15T16:07:06.559Z,5.30
2019-02-15T16:09:35.796Z,4.80
2019-02-15T16:12:05.098Z,6.77
2019-02-15T16:14:34.500Z,6.47
2019-02-15T16:17:03.825Z,4.77
2019-02-15T16:19:40.567Z,5.10
2019-02-15T16:22:04.251Z,8.63
2019-02-15T16:24:33.582Z,4.93
2019-02-15T16:27:02.901Z,4.90
2019-02-15T16:29:32.488Z,7.07
2019-02-15T16:32:01.771Z,9.57
2019-02-15T16:34:31.039Z,8.57
2019-02-15T16:37:00.352Z,10.37
2019-02-15T16:39:29.649Z,8.37
2019-02-15T16:41:58.902Z,9.40
2019-02-15T16:44:28.182Z,10.27
2019-02-15T16:46:57.545Z,10.60
2019-02-15T16:49:26.864Z,19.30
2019-02-15T16:51:56.199Z,17.50
2019-02-15T16:54:25.582Z,15.40
2019-02-15T16:56:56.141Z,11.20
2019-02-15T16:59:25.428Z,5.57
2019-02-15T17:01:54.760Z,5.67
2019-02-15T17:04:24.736Z,7.97
2019-02-15T17:06:54.054Z,7.77
2019-02-15T17:09:23.519Z,6.77
2019-02-15T17:11:52.892Z,7.17
2019-02-15T17:14:22.096Z,6.20
2019-02-15T17:16:52.496Z,6.00
2019-02-15T17:19:21.878Z,6.83
2019-02-15T17:21:51.097Z,8.90
2019-02-15T17:24:20.458Z,9.67
2019-02-15T17:26:49.696Z,14.93
2019-02-15T17:29:19.006Z,14.87
2019-02-15T17:31:49.517Z,13.90
2019-02-15T17:34:18.839Z,9.40
2019-02-15T17:36:48.473Z,11.73
2019-02-15T17:39:17.875Z,12.90
2019-02-15T17:41:47.689Z,21.73
2019-02-15T17:44:16.901Z,22.93
2019-02-15T17:46:46.171Z,22.37
2019-02-15T17:49:15.771Z,22.40
2019-02-15T17:51:45.075Z,19.07
2019-02-15T17:54:15.199Z,16.73
2019-02-15T17:56:44.511Z,25.23
2019-02-15T17:59:13.769Z,25.02
2019-02-15T18:01:43.070Z,17.63
2019-02-15T18:04:12.392Z,16.87
2019-02-15T18:06:41.759Z,21.00
2019-02-15T18:09:11.317Z,18.83
2019-02-15T18:11:40.757Z,14.47
2019-02-15T18:14:10.353Z,14.93
2019-02-15T18:16:49.390Z,13.03
2019-02-15T18:19:18.653Z,20.13
2019-02-15T18:21:47.922Z,11.23
2019-02-15T18:25:11.692Z,8.53
2019-02-15T18:27:41.407Z,9.30
2019-02-15T18:30:14.298Z,15.57
2019-02-15T18:32:43.545Z,18.97
2019-02-15T18:35:23.329Z,28.40
2019-02-15T18:37:54.690Z,37.27
2019-02-15T18:40:24.003Z,16.60
2019-02-15T18:42:57.086Z,10.63
2019-02-15T18:45:26.435Z,20.30
2019-02-15T18:48:19.452Z,19.80
2019-02-15T18:50:48.792Z,16.97
2019-02-15T18:53:18.177Z,26.87
2019-02-15T18:55:47.557Z,29.60
2019-02-15T18:58:16.877Z,16.70
2019-02-15T19:00:46.409Z,16.17
2019-02-15T19:03:15.940Z,15.00
2019-02-15T19:05:45.217Z,18.60
2019-02-15T19:08:14.568Z,28.27
2019-02-15T19:10:43.860Z,25.50
2019-02-15T19:13:20.543Z,19.40
2019-02-15T19:15:50.059Z,20.40
2019-02-15T19:18:19.340Z,27.17
2019-02-15T19:20:48.637Z,25.60
2019-02-15T19:24:24.049Z,22.13
2019-02-15T19:26:53.445Z,29.73
2019-02-15T19:29:22.729Z,18.97
2019-02-15T19:31:52.108Z,27.63
2019-02-15T19:34:21.887Z,28.47
2019-02-15T19:36:51.200Z,22.03
2019-02-15T19:39:20.535Z,23.77
2019-02-15T19:41:49.850Z,18.97
2019-02-15T19:44:19.181Z,14.73
2019-02-15T19:46:48.578Z,19.13
2019-02-15T19:49:19.146Z,14.30
2019-02-15T19:51:48.480Z,16.37
2019-02-15T19:54:17.960Z,14.50
2019-02-15T19:56:47.270Z,10.40
2019-02-15T19:59:16.611Z,9.27
2019-02-15T20:01:45.971Z,10.70
2019-02-15T20:04:15.279Z,11.87
2019-02-15T20:06:44.610Z,18.80
2019-02-15T20:09:14.077Z,16.07
2019-02-15T20:11:43.500Z,8.67
2019-02-15T20:14:13.170Z,13.03
2019-02-15T20:16:42.541Z,9.40
2019-02-15T20:19:11.858Z,9.23
2019-02-15T20:21:41.140Z,8.20
2019-02-15T20:24:10.501Z,7.63
2019-02-15T20:26:39.829Z,9.07
2019-02-15T20:29:09.381Z,12.73
2019-02-15T20:31:38.741Z,17.07
2019-02-15T20:34:08.060Z,16.07
2019-02-15T20:36:37.378Z,17.50
2019-02-15T20:39:06.820Z,20.63
2019-02-15T20:41:36.181Z,19.63
2019-02-15T20:44:05.675Z,15.37
2019-02-15T20:46:35.039Z,12.27
2019-02-15T20:49:05.086Z,8.40
2019-02-15T20:51:34.597Z,7.43
2019-02-15T20:54:04.089Z,10.00
2019-02-15T20:56:33.587Z,11.20
2019-02-15T20:59:02.998Z,11.83
2019-02-15T21:01:37.203Z,8.30
2019-02-15T21:04:06.979Z,6.70
2019-02-15T21:06:36.925Z,6.97
2019-02-15T21:09:07.532Z,9.53
2019-02-15T21:11:37.002Z,7.40
2019-02-15T21:14:06.345Z,7.53
2019-02-15T21:16:35.716Z,11.40
2019-02-15T21:19:04.973Z,9.53
2019-02-15T21:21:34.368Z,13.17
2019-02-15T21:24:03.899Z,11.23
2019-02-15T21:26:33.284Z,11.13
2019-02-15T21:29:02.742Z,12.07
2019-02-15T21:31:32.328Z,7.33
2019-02-15T21:34:03.109Z,6.40
2019-02-15T21:36:32.786Z,5.30
2019-02-15T21:39:02.305Z,6.07
2019-02-15T21:41:32.301Z,4.90
2019-02-15T21:44:01.627Z,5.27
2019-02-15T21:47:04.430Z,5.20
2019-02-15T21:49:33.734Z,5.57
2019-02-15T21:52:27.312Z,5.23
2019-02-15T21:54:56.535Z,9.60
2019-02-15T21:57:25.840Z,13.03
2019-02-15T21:59:55.143Z,6.60
2019-02-15T22:02:24.515Z,5.60
2019-02-15T22:04:53.779Z,6.43
2019-02-15T22:07:23.454Z,7.13
2019-02-15T22:09:52.690Z,11.50
2019-02-15T22:12:21.914Z,14.40
2019-02-15T22:14:51.214Z,15.17
2019-02-15T22:17:20.467Z,13.63
2019-02-15T22:19:49.746Z,13.63
2019-02-15T22:22:19.049Z,7.57
2019-02-15T22:24:48.321Z,7.00
2019-02-15T22:27:17.589Z,5.80
2019-02-15T22:29:46.988Z,5.73
2019-02-15T22:32:16.210Z,8.20
2019-02-15T22:34:45.463Z,10.23
2019-02-15T22:37:14.678Z,7.67
2019-02-15T22:39:43.993Z,6.77
2019-02-15T22:42:13.257Z,9.63
2019-02-15T22:44:42.540Z,12.50
2019-02-15T22:47:20.592Z,14.27
2019-02-15T22:49:49.829Z,11.07
2019-02-15T22:52:19.084Z,9.53
2019-02-15T22:54:48.332Z,7.70
2019-02-15T22:57:17.546Z,6.97
2019-02-15T22:59:46.782Z,5.77
2019-02-15T23:02:16.173Z,11.57
2019-02-15T23:04:45.416Z,6.87
2019-02-15T23:07:14.615Z,7.73
2019-02-15T23:09:43.901Z,7.53
2019-02-15T23:12:13.150Z,5.77
2019-02-15T23:14:42.416Z,6.00
2019-02-15T23:17:11.651Z,6.40
2019-02-15T23:19:40.908Z,6.23
2019-02-15T23:22:10.172Z,7.50
2019-02-15T23:24:39.408Z,5.60
2019-02-15T23:27:08.646Z,6.37
2019-02-15T23:29:37.882Z,5.33
2019-02-15T23:32:07.095Z,5.67
2019-02-15T23:34:36.331Z,4.63
2019-02-15T23:37:05.581Z,4.73
2019-02-15T23:39:34.805Z,4.53
2019-02-15T23:42:04.032Z,4.93
2019-02-15T23:44:33.627Z,4.83
2019-02-15T23:47:02.837Z,4.80
2019-02-15T23:49:32.101Z,6.40
2019-02-15T23:52:01.288Z,6.27
2019-02-15T23:54:30.525Z,6.80
2019-02-15T23:56:59.873Z,6.93
2019-02-15T23:59:35.578Z,6.50
